N701BP KCGF-KCLE
Flight info
| Callsign | N701BP |
|---|---|
| Flight time | 0h 12m |
| Altitude | VFR/035 |
| Route | |
| Aircraft | C152/L-VGD/C |
Departure
| Time | 2026-05-07 23:29 |
|---|---|
| Airport | Cuyahoga County Airport (KCGF) |
Arrival
| Time | 2026-05-07 23:41 |
|---|---|
| Airport | Cleveland Hopkins International Airport (KCLE) |
| Time | Latitude | Longitude | Altitude | Speed | Heading |
|---|---|---|---|---|---|
| 2026-05-07 23:25 | 41.56718 | -81.48461 | 874 ft | 0 kts | 139° |
| 2026-05-07 23:27 | 41.56676 | -81.48418 | 873 ft | 19 kts | 163° |
| 2026-05-07 23:28 | 41.56543 | -81.48589 | 874 ft | 48 kts | 229° |
| 2026-05-07 23:28 | 41.56246 | -81.49030 | 983 ft | 67 kts | 226° |
| 2026-05-07 23:28 | 41.55946 | -81.49518 | 1162 ft | 72 kts | 234° |
| 2026-05-07 23:28 | 41.55636 | -81.50076 | 1334 ft | 75 kts | 235° |
| 2026-05-07 23:29 | 41.55359 | -81.50645 | 1540 ft | 72 kts | 237° |
| 2026-05-07 23:29 | 41.55099 | -81.51210 | 1757 ft | 70 kts | 238° |
| 2026-05-07 23:29 | 41.54836 | -81.51739 | 1950 ft | 71 kts | 233° |
| 2026-05-07 23:29 | 41.54535 | -81.52250 | 2149 ft | 69 kts | 231° |
| 2026-05-07 23:30 | 41.54239 | -81.52729 | 2358 ft | 67 kts | 229° |
| 2026-05-07 23:30 | 41.53939 | -81.53239 | 2550 ft | 69 kts | 232° |
| 2026-05-07 23:30 | 41.53647 | -81.53725 | 2755 ft | 66 kts | 229° |
| 2026-05-07 23:30 | 41.53348 | -81.54163 | 2895 ft | 70 kts | 230° |
| 2026-05-07 23:31 | 41.53005 | -81.54690 | 2980 ft | 79 kts | 232° |
| 2026-05-07 23:31 | 41.52665 | -81.55239 | 3012 ft | 75 kts | 231° |
| 2026-05-07 23:31 | 41.52306 | -81.55854 | 3010 ft | 92 kts | 232° |
| 2026-05-07 23:31 | 41.51889 | -81.56545 | 3040 ft | 98 kts | 229° |
| 2026-05-07 23:32 | 41.51434 | -81.57249 | 3059 ft | 102 kts | 231° |
| 2026-05-07 23:32 | 41.50977 | -81.57987 | 3069 ft | 104 kts | 230° |
| 2026-05-07 23:32 | 41.50501 | -81.58740 | 3051 ft | 106 kts | 229° |
| 2026-05-07 23:32 | 41.50010 | -81.59482 | 3043 ft | 106 kts | 230° |
| 2026-05-07 23:33 | 41.49525 | -81.60215 | 3053 ft | 104 kts | 227° |
| 2026-05-07 23:33 | 41.49044 | -81.60932 | 3058 ft | 104 kts | 229° |
| 2026-05-07 23:33 | 41.48701 | -81.61759 | 3076 ft | 103 kts | 257° |
| 2026-05-07 23:33 | 41.48759 | -81.62705 | 3079 ft | 104 kts | 291° |
| 2026-05-07 23:34 | 41.49209 | -81.63441 | 3090 ft | 103 kts | 317° |
| 2026-05-07 23:34 | 41.49752 | -81.64081 | 3082 ft | 105 kts | 318° |
| 2026-05-07 23:34 | 41.50306 | -81.64711 | 3087 ft | 105 kts | 318° |
| 2026-05-07 23:34 | 41.50811 | -81.65406 | 3077 ft | 104 kts | 294° |
| 2026-05-07 23:35 | 41.50841 | -81.66372 | 3032 ft | 107 kts | 265° |
| 2026-05-07 23:35 | 41.50752 | -81.67360 | 3008 ft | 107 kts | 261° |
| 2026-05-07 23:35 | 41.50641 | -81.68346 | 3010 ft | 105 kts | 261° |
| 2026-05-07 23:35 | 41.50529 | -81.69317 | 3000 ft | 106 kts | 259° |
| 2026-05-07 23:36 | 41.50370 | -81.70265 | 3015 ft | 106 kts | 248° |
| 2026-05-07 23:36 | 41.49937 | -81.71067 | 2989 ft | 108 kts | 237° |
| 2026-05-07 23:36 | 41.49568 | -81.71945 | 2940 ft | 111 kts | 239° |
| 2026-05-07 23:36 | 41.49126 | -81.72742 | 2988 ft | 105 kts | 227° |
| 2026-05-07 23:37 | 41.48621 | -81.73475 | 2944 ft | 109 kts | 230° |
| 2026-05-07 23:37 | 41.48166 | -81.74296 | 2817 ft | 108 kts | 239° |
| 2026-05-07 23:37 | 41.47741 | -81.75100 | 2637 ft | 108 kts | 230° |
| 2026-05-07 23:37 | 41.47230 | -81.75811 | 2489 ft | 104 kts | 225° |
| 2026-05-07 23:38 | 41.46757 | -81.76521 | 2369 ft | 102 kts | 233° |
| 2026-05-07 23:38 | 41.46320 | -81.77269 | 2224 ft | 102 kts | 231° |
| 2026-05-07 23:38 | 41.45863 | -81.77999 | 2066 ft | 103 kts | 231° |
| 2026-05-07 23:38 | 41.45411 | -81.78715 | 1942 ft | 101 kts | 230° |
| 2026-05-07 23:39 | 41.44966 | -81.79425 | 1832 ft | 99 kts | 231° |
| 2026-05-07 23:39 | 41.44537 | -81.80132 | 1701 ft | 100 kts | 231° |
| 2026-05-07 23:39 | 41.44089 | -81.80856 | 1578 ft | 100 kts | 230° |
| 2026-05-07 23:39 | 41.43634 | -81.81574 | 1451 ft | 100 kts | 230° |
| 2026-05-07 23:40 | 41.43179 | -81.82293 | 1316 ft | 101 kts | 230° |
| 2026-05-07 23:40 | 41.42724 | -81.83006 | 1171 ft | 103 kts | 230° |
| 2026-05-07 23:40 | 41.42266 | -81.83742 | 1029 ft | 103 kts | 231° |
| 2026-05-07 23:40 | 41.41810 | -81.84465 | 885 ft | 99 kts | 230° |
| 2026-05-07 23:41 | 41.41411 | -81.85103 | 791 ft | 78 kts | 229° |
| 2026-05-07 23:41 | 41.41100 | -81.85591 | 778 ft | 61 kts | 229° |
| 2026-05-07 23:41 | 41.40891 | -81.85860 | 779 ft | 29 kts | 186° |
| 2026-05-07 23:41 | 41.40799 | -81.85849 | 778 ft | 0 kts | 210° |